Time;durP1;ratioP1;P1;durP2;ratioP2;P2;SDS_P1;SDS_P2;PMS_P1;PMS_P2;Temp;Humidity;BMP_temperature;BMP_pressure;BME280_temperature;BME280_humidity;BME280_pressure;Samples;Min_cycle;Max_cycle;Signal;HPM_P1;HPM_P2
2022/07/05 00:01:10;;;;;;;4.90;4.47;;;;;;;-141.48;100.00;69781.59;4935212;30;20114;-63
2022/07/05 00:04:39;;;;;;;7.68;6.65;;;;;;;-141.48;100.00;69781.59;4934397;30;20034;-64
2022/07/05 00:08:08;;;;;;;5.55;5.15;;;;;;;-141.48;100.00;69781.59;4951198;29;20118;-64
2022/07/05 00:11:37;;;;;;;6.68;6.28;;;;;;;-141.48;100.00;69781.59;4948854;30;20039;-63
2022/07/05 00:15:06;;;;;;;5.60;5.30;;;;;;;-141.48;100.00;69781.59;4950908;30;20093;-63
2022/07/05 00:18:35;;;;;;;6.80;6.47;;;;;;;-141.48;100.00;69781.59;4950726;29;20225;-64
2022/07/05 00:22:04;;;;;;;8.40;5.90;;;;;;;-141.48;100.00;69781.59;4950245;30;20103;-64
2022/07/05 00:25:33;;;;;;;6.18;5.65;;;;;;;-141.48;100.00;69781.59;4951127;30;20094;-64
2022/07/05 00:29:02;;;;;;;5.70;5.40;;;;;;;-141.48;100.00;69781.59;4951467;30;20057;-64
2022/07/05 00:32:31;;;;;;;6.50;6.15;;;;;;;-141.48;100.00;69781.59;4950930;30;20031;-64
2022/07/05 00:36:00;;;;;;;8.48;7.68;;;;;;;-141.48;100.00;69781.59;4934490;30;20060;-64
2022/07/05 00:39:29;;;;;;;6.95;6.28;;;;;;;-141.48;100.00;69781.59;4951127;30;20111;-64
2022/07/05 00:42:59;;;;;;;6.22;5.72;;;;;;;-141.48;100.00;69781.59;4934816;30;20070;-64
2022/07/05 00:46:28;;;;;;;;;;;;;;;-141.48;100.00;69781.59;4951004;30;20087;-64
2022/07/05 00:49:58;;;;;;;5.28;4.97;;;;;;;-141.48;100.00;69781.59;4951270;30;19914;-64
2022/07/05 00:53:27;;;;;;;;;;;;;;;-141.48;100.00;69781.59;4951238;30;20411;-64
2022/07/05 00:56:56;;;;;;;7.22;6.68;;;;;;;-141.48;100.00;69781.59;4950885;30;20383;-65
2022/07/05 01:00:26;;;;;;;4.68;4.38;;;;;;;-141.48;100.00;69781.59;4950672;30;20548;-64
2022/07/05 01:03:55;;;;;;;8.35;6.95;;;;;;;-141.48;100.00;69781.59;4950004;30;20035;-64
2022/07/05 01:07:25;;;;;;;7.57;6.90;;;;;;;-141.48;100.00;69781.59;4950131;30;20038;-65
2022/07/05 01:10:57;;;;;;;;;;;;;;;-141.48;100.00;69781.59;4950404;30;20035;-64
2022/07/05 01:14:26;;;;;;;8.43;7.82;;;;;;;-141.48;100.00;69781.59;4949528;30;20011;-64
2022/07/05 01:17:55;;;;;;;6.80;6.50;;;;;;;-141.48;100.00;69781.59;4933866;30;20031;-64
2022/07/05 01:21:26;;;;;;;7.35;6.75;;;;;;;-141.48;100.00;69781.59;4949671;30;20036;-64
2022/07/05 01:24:55;;;;;;;14.25;7.68;;;;;;;-141.48;100.00;69781.59;4933205;30;20095;-64
2022/07/05 01:28:25;;;;;;;8.07;7.60;;;;;;;-141.48;100.00;69781.59;4949758;30;20039;-65
2022/07/05 01:31:54;;;;;;;7.95;7.45;;;;;;;-141.48;100.00;69781.59;4953434;30;20134;-64
2022/07/05 01:35:23;;;;;;;7.88;6.70;;;;;;;-141.48;100.00;69781.59;4953049;30;20023;-64
2022/07/05 01:38:52;;;;;;;8.07;7.40;;;;;;;-141.48;100.00;69781.59;4953385;30;20461;-64
2022/07/05 01:42:21;;;;;;;8.10;7.43;;;;;;;-141.48;100.00;69781.59;4937086;30;20040;-64
2022/07/05 01:45:50;;;;;;;10.15;9.27;;;;;;;-141.48;100.00;69781.59;4952948;30;20038;-64
2022/07/05 01:49:21;;;;;;;7.28;6.68;;;;;;;-141.48;100.00;69781.59;4953025;30;20024;-64
2022/07/05 01:52:53;;;;;;;7.28;6.88;;;;;;;-141.48;100.00;69781.59;4953017;30;20039;-64
2022/07/05 01:56:22;;;;;;;11.20;8.68;;;;;;;-141.48;100.00;69781.59;4936098;30;20043;-64
2022/07/05 01:59:51;;;;;;;8.52;7.82;;;;;;;-141.48;100.00;69781.59;4952917;30;20042;-64
2022/07/05 02:03:21;;;;;;;9.73;9.02;;;;;;;-141.48;100.00;69781.59;4953224;30;20038;-65
2022/07/05 02:06:50;;;;;;;9.30;8.50;;;;;;;-141.48;100.00;69781.59;4951575;30;20452;-65
2022/07/05 02:10:19;;;;;;;7.93;7.33;;;;;;;-141.48;100.00;69781.59;4953070;30;20034;-65
2022/07/05 02:13:48;;;;;;;7.85;7.35;;;;;;;-141.48;100.00;69781.59;4953341;30;20306;-64
2022/07/05 02:17:20;;;;;;;8.05;7.55;;;;;;;-141.48;100.00;69781.59;4953292;30;20039;-65
2022/07/05 02:20:49;;;;;;;8.60;7.80;;;;;;;-141.48;100.00;69781.59;4953004;30;20036;-65
2022/07/05 02:24:19;;;;;;;7.88;7.47;;;;;;;-141.48;100.00;69781.59;4952860;30;20211;-65
2022/07/05 02:27:48;;;;;;;;;;;;;;;-141.48;100.00;69781.59;4953443;30;20035;-65
2022/07/05 02:31:19;;;;;;;9.85;8.82;;;;;;;-141.48;100.00;69781.59;4952513;30;20389;-65
2022/07/05 02:34:48;;;;;;;8.05;7.32;;;;;;;-141.48;100.00;69781.59;4936332;30;20412;-64
2022/07/05 02:38:17;;;;;;;8.50;7.90;;;;;;;-141.48;100.00;69781.59;4952770;30;20031;-64
2022/07/05 02:41:46;;;;;;;8.85;8.30;;;;;;;-141.48;100.00;69781.59;4952374;29;20536;-65
2022/07/05 02:45:15;;;;;;;8.00;7.50;;;;;;;-141.48;100.00;69781.59;4951977;30;20039;-65
2022/07/05 02:48:44;;;;;;;8.85;8.23;;;;;;;-141.48;100.00;69781.59;4952705;30;20066;-65
2022/07/05 02:52:13;;;;;;;8.98;8.48;;;;;;;-141.48;100.00;69781.59;4952782;30;20036;-65
2022/07/05 02:55:41;;;;;;;8.70;7.93;;;;;;;-141.48;100.00;69781.59;4951517;30;20038;-65
2022/07/05 02:59:10;;;;;;;9.02;8.43;;;;;;;-141.48;100.00;69781.59;4952445;30;20539;-65
2022/07/05 03:02:39;;;;;;;8.45;8.02;;;;;;;-141.48;100.00;69781.59;4951970;30;20038;-65
2022/07/05 03:06:08;;;;;;;8.05;7.53;;;;;;;-141.48;100.00;69781.59;4951489;30;20031;-66
2022/07/05 03:09:38;;;;;;;9.45;8.82;;;;;;;-141.48;100.00;69781.59;4952325;30;20035;-65
2022/07/05 03:13:07;;;;;;;;;;;;;;;-141.48;100.00;69781.59;4952331;30;20508;-66
2022/07/05 03:16:38;;;;;;;9.80;9.20;;;;;;;-141.48;100.00;69781.59;4951525;30;19949;-66
2022/07/05 03:20:07;;;;;;;11.55;9.13;;;;;;;-141.48;100.00;69781.59;4935700;30;20031;-64
2022/07/05 03:23:36;;;;;;;10.80;10.10;;;;;;;-141.48;100.00;69781.59;4951366;30;20493;-65
2022/07/05 03:27:05;;;;;;;11.13;10.38;;;;;;;-141.48;100.00;69781.59;4935207;30;20697;-64
2022/07/05 03:30:34;;;;;;;10.85;10.05;;;;;;;-141.48;100.00;69781.59;4951246;30;20092;-65
2022/07/05 03:34:03;;;;;;;10.25;9.63;;;;;;;-141.48;100.00;69781.59;4951354;30;20046;-64
2022/07/05 03:37:32;;;;;;;9.13;8.43;;;;;;;-141.48;100.00;69781.59;4935111;30;20023;-65
2022/07/05 03:41:02;;;;;;;10.75;9.98;;;;;;;-141.48;100.00;69781.59;4951246;30;20042;-65
2022/07/05 03:44:32;;;;;;;13.75;12.60;;;;;;;-141.48;100.00;69781.59;4950596;30;20027;-65
2022/07/05 03:48:01;;;;;;;11.52;8.55;;;;;;;-141.48;100.00;69781.59;4950898;30;20062;-65
2022/07/05 03:51:30;;;;;;;11.32;10.27;;;;;;;-141.48;100.00;69781.59;4951150;30;20178;-65
2022/07/05 03:55:00;;;;;;;10.88;10.18;;;;;;;-141.48;100.00;69781.59;4950110;30;20053;-65
2022/07/05 03:58:28;;;;;;;14.48;10.32;;;;;;;-141.48;100.00;69781.59;4925875;30;20118;-66
2022/07/05 04:01:57;;;;;;;11.95;11.05;;;;;;;-141.48;100.00;69781.59;4950861;30;20034;-66
2022/07/05 04:05:26;;;;;;;11.90;11.02;;;;;;;-141.48;100.00;69781.59;4949883;30;20038;-65
2022/07/05 04:08:55;;;;;;;11.57;10.55;;;;;;;-141.48;100.00;69781.59;4950124;30;20381;-65
2022/07/05 04:12:24;;;;;;;13.00;11.90;;;;;;;-141.48;100.00;69781.59;4950655;30;20508;-65
2022/07/05 04:15:55;;;;;;;12.40;11.47;;;;;;;-141.48;100.00;69781.59;4949973;30;20106;-65
2022/07/05 04:19:24;;;;;;;12.65;11.50;;;;;;;-141.48;100.00;69781.59;5001015;24;20047;-81
2022/07/05 04:22:55;;;;;;;12.10;11.13;;;;;;;-141.48;100.00;69781.59;4976834;29;20623;-83
2022/07/05 04:26:24;;;;;;;14.65;12.13;;;;;;;-141.48;100.00;69781.59;4976900;29;20032;-79
2022/07/05 04:29:52;;;;;;;11.35;10.65;;;;;;;-141.48;100.00;69781.59;4978542;29;20106;-81
2022/07/05 04:33:21;;;;;;;11.25;10.45;;;;;;;-141.48;100.00;69781.59;4976347;29;20030;-81
2022/07/05 04:36:50;;;;;;;12.23;11.35;;;;;;;-141.48;100.00;69781.59;4960831;29;20034;-81
2022/07/05 04:40:19;;;;;;;12.40;11.20;;;;;;;-141.48;100.00;69781.59;4976857;29;20486;-81
2022/07/05 04:43:48;;;;;;;10.18;9.52;;;;;;;-141.48;100.00;69781.59;4976894;29;20397;-79
2022/07/05 04:47:17;;;;;;;10.05;9.45;;;;;;;-141.48;100.00;69781.59;4977307;29;20030;-82
2022/07/05 04:50:46;;;;;;;11.07;9.85;;;;;;;-141.48;100.00;69781.59;4977145;29;20049;-81
2022/07/05 04:54:15;;;;;;;13.03;9.30;;;;;;;-141.48;100.00;69781.59;4979259;29;20054;-80
2022/07/05 04:57:44;;;;;;;11.15;10.23;;;;;;;-141.48;100.00;69781.59;4980410;29;20031;-82
2022/07/05 05:01:13;;;;;;;10.85;9.82;;;;;;;-141.48;100.00;69781.59;4978185;29;20117;-82
2022/07/05 05:04:42;;;;;;;11.68;10.32;;;;;;;-141.48;100.00;69781.59;4976092;29;20035;-82
2022/07/05 05:08:11;;;;;;;10.73;10.13;;;;;;;-141.48;100.00;69781.59;4976712;29;20038;-82
2022/07/05 05:11:40;;;;;;;12.83;10.53;;;;;;;-141.48;100.00;69781.59;4976163;29;20038;-79
2022/07/05 05:15:09;;;;;;;18.88;9.82;;;;;;;-141.48;100.00;69781.59;4975496;29;20039;-82
2022/07/05 05:18:39;;;;;;;10.90;8.75;;;;;;;-141.48;100.00;69781.59;4959773;29;20042;-81
2022/07/05 05:22:09;;;;;;;15.50;9.70;;;;;;;-141.48;100.00;69781.59;4974707;29;20041;-80
2022/07/05 05:25:37;;;;;;;7.97;7.20;;;;;;;-141.48;100.00;69781.59;4958087;29;20445;-83
2022/07/05 05:29:06;;;;;;;10.43;9.77;;;;;;;-141.48;100.00;69781.59;4958665;29;20034;-80
2022/07/05 05:32:35;;;;;;;11.90;10.15;;;;;;;-141.48;100.00;69781.59;4976686;29;20498;-83
2022/07/05 05:36:05;;;;;;;9.03;8.27;;;;;;;-141.48;100.00;69781.59;4975717;29;20105;-82
2022/07/05 05:39:35;;;;;;;8.95;8.45;;;;;;;-141.48;100.00;69781.59;4975979;29;20502;-81
2022/07/05 05:43:04;;;;;;;9.32;8.63;;;;;;;-141.48;100.00;69781.59;4959892;29;20087;-80
2022/07/05 05:46:33;;;;;;;14.85;8.75;;;;;;;-141.48;100.00;69781.59;4976682;29;20038;-84
2022/07/05 05:50:02;;;;;;;11.67;8.47;;;;;;;-141.48;100.00;69781.59;4979673;29;20030;-81
2022/07/05 05:53:31;;;;;;;10.60;9.27;;;;;;;-141.48;100.00;69781.59;4976161;29;20030;-83
2022/07/05 05:57:00;;;;;;;9.00;7.13;;;;;;;-141.48;100.00;69781.59;4957776;29;20026;-84
2022/07/05 06:00:28;;;;;;;9.27;8.43;;;;;;;-141.48;100.00;69781.59;4978367;29;20094;-82
2022/07/05 06:03:57;;;;;;;10.30;8.30;;;;;;;-141.48;100.00;69781.59;4978494;29;20145;-82
2022/07/05 06:07:26;;;;;;;8.07;7.10;;;;;;;-141.48;100.00;69781.59;4975642;29;20069;-84
2022/07/05 06:10:55;;;;;;;8.05;7.30;;;;;;;-141.48;100.00;69781.59;4959022;29;20287;-84
2022/07/05 06:14:24;;;;;;;7.90;6.83;;;;;;;-141.48;100.00;69781.59;4975323;29;20076;-85
2022/07/05 06:17:53;;;;;;;8.00;7.27;;;;;;;-141.48;100.00;69781.59;4978699;29;20034;-83
2022/07/05 06:21:26;;;;;;;8.18;7.53;;;;;;;-141.48;100.00;69781.59;4962978;29;20062;-85
2022/07/05 06:24:55;;;;;;;7.38;6.68;;;;;;;-141.48;100.00;69781.59;4963262;29;20087;-84
2022/07/05 06:28:24;;;;;;;5.87;5.37;;;;;;;-141.48;100.00;69781.59;4978857;29;20035;-85
2022/07/05 06:31:53;;;;;;;11.07;8.07;;;;;;;-141.48;100.00;69781.59;4962860;29;20428;-85
2022/07/05 06:35:22;;;;;;;7.63;6.97;;;;;;;-141.48;100.00;69781.59;4978409;29;20031;-83
2022/07/05 06:38:53;;;;;;;9.55;8.02;;;;;;;-141.48;100.00;69781.59;4977516;29;20040;-85
2022/07/05 06:42:22;;;;;;;8.05;7.20;;;;;;;-141.48;100.00;69781.59;4960105;29;20042;-85
2022/07/05 06:45:51;;;;;;;6.43;6.00;;;;;;;-141.48;100.00;69781.59;4961207;29;20031;-83
2022/07/05 06:49:20;;;;;;;9.20;7.25;;;;;;;-141.48;100.00;69781.59;4976601;29;20303;-86
2022/07/05 06:52:40;;;;;;;8.07;7.13;;;;;;;-141.48;100.00;69781.59;4978886;29;20504;-86
2022/07/05 06:56:09;;;;;;;8.05;7.28;;;;;;;-141.48;100.00;69781.59;4962321;29;20038;-83
2022/07/05 06:59:37;;;;;;;12.63;7.25;;;;;;;-141.48;100.00;69781.59;4976996;29;20078;-84
2022/07/05 07:03:00;;;;;;;8.38;5.30;;;;;;;-141.48;100.00;69781.59;4978351;29;20062;-85
2022/07/05 07:06:29;;;;;;;5.82;5.43;;;;;;;-141.48;100.00;69781.59;4961863;29;20042;-84
2022/07/05 07:09:58;;;;;;;5.20;4.80;;;;;;;-141.48;100.00;69781.59;4978168;29;20038;-85
2022/07/05 07:13:27;;;;;;;8.77;6.07;;;;;;;-141.48;100.00;69781.59;4978351;29;20041;-85
2022/07/05 07:16:52;;;;;;;5.15;4.72;;;;;;;-141.48;100.00;69781.59;4962398;29;20194;-83
2022/07/05 07:20:21;;;;;;;6.32;5.93;;;;;;;-141.48;100.00;69781.59;4978524;29;20077;-84
2022/07/05 07:23:07;;;;;;;6.53;6.00;;;;;;;-141.48;100.00;69781.59;4962770;29;20132;-85
2022/07/05 07:30:25;;;;;;;5.30;4.78;;;;;;;-141.48;100.00;69781.59;4978826;29;20050;-83
2022/07/05 07:33:54;;;;;;;4.50;4.20;;;;;;;-141.48;100.00;69781.59;4978386;29;20102;-84
2022/07/05 07:37:23;;;;;;;9.80;5.65;;;;;;;-141.48;100.00;69781.59;4978555;29;20402;-84
2022/07/05 07:40:52;;;;;;;4.55;4.35;;;;;;;-141.48;100.00;69781.59;4962570;29;20023;-81
2022/07/05 07:44:21;;;;;;;14.55;5.03;;;;;;;-141.48;100.00;69781.59;4961519;29;20055;-82
2022/07/05 07:47:50;;;;;;;5.78;3.60;;;;;;;-141.48;100.00;69781.59;4963874;29;20031;-85
2022/07/05 07:51:21;;;;;;;6.55;4.95;;;;;;;-141.48;100.00;69781.59;4963981;29;20035;-84
2022/07/05 07:54:50;;;;;;;8.93;5.25;;;;;;;-141.48;100.00;69781.59;4981450;29;20034;-84
2022/07/05 07:58:19;;;;;;;4.63;4.00;;;;;;;-141.48;100.00;69781.59;4964613;29;20033;-84
2022/07/05 08:01:48;;;;;;;6.57;5.80;;;;;;;-141.48;100.00;69781.59;4980584;29;20057;-84
2022/07/05 08:05:16;;;;;;;9.25;5.13;;;;;;;-141.48;100.00;69781.59;4978324;29;20027;-85
2022/07/05 08:08:47;;;;;;;2.80;2.65;;;;;;;-141.48;100.00;69781.59;4979073;29;20042;-81
2022/07/05 08:12:15;;;;;;;9.32;3.78;;;;;;;-141.48;100.00;69781.59;4962463;29;20023;-81
2022/07/05 08:15:45;;;;;;;6.15;4.05;;;;;;;-141.48;100.00;69781.59;4976529;29;20027;-83
2022/07/05 08:23:01;;;;;;;7.07;3.70;;;;;;;-141.48;100.00;69781.59;4976367;29;20295;-84
2022/07/05 08:26:22;;;;;;;;;;;;;;;-141.48;100.00;69781.59;4975127;29;20088;-80
2022/07/05 08:29:51;;;;;;;3.30;3.20;;;;;;;-141.48;100.00;69781.59;4974991;29;20314;-84
2022/07/05 08:33:20;;;;;;;6.22;4.05;;;;;;;-141.48;100.00;69781.59;4976856;29;20031;-83
2022/07/05 08:36:48;;;;;;;3.38;3.13;;;;;;;-141.48;100.00;69781.59;4958012;29;20031;-81
2022/07/05 08:39:37;;;;;;;3.20;3.10;;;;;;;-141.48;100.00;69781.59;4958224;29;20063;-81
2022/07/05 08:43:07;;;;;;;4.28;3.70;;;;;;;-141.48;100.00;69781.59;4974649;29;20783;-81
2022/07/05 08:46:38;;;;;;;6.85;4.45;;;;;;;-141.48;100.00;69781.59;4956274;29;20042;-81
2022/07/05 08:50:09;;;;;;;4.68;4.03;;;;;;;-141.48;100.00;69781.59;4973881;29;20553;-82
2022/07/05 08:53:41;;;;;;;3.70;3.22;;;;;;;-141.48;100.00;69781.59;4960187;29;20097;-80
2022/07/05 08:57:11;;;;;;;5.28;3.35;;;;;;;-141.48;100.00;69781.59;4977164;29;20023;-80
2022/07/05 09:00:41;;;;;;;6.63;4.55;;;;;;;-141.48;100.00;69781.59;4977084;29;20079;-80
2022/07/05 09:04:11;;;;;;;4.28;3.15;;;;;;;-141.48;100.00;69781.59;4977741;29;20060;-82
2022/07/05 09:07:44;;;;;;;4.43;3.60;;;;;;;-141.48;100.00;69781.59;4974263;29;20027;-81
2022/07/05 09:11:16;;;;;;;8.10;4.45;;;;;;;-141.48;100.00;69781.59;4958810;29;20038;-80
2022/07/05 09:14:48;;;;;;;3.05;2.85;;;;;;;-141.48;100.00;69781.59;4974444;29;20042;-78
2022/07/05 09:18:35;;;;;;;5.40;4.25;;;;;;;-141.48;100.00;69781.59;4957788;29;20263;-78
2022/07/05 09:22:10;;;;;;;2.88;2.67;;;;;;;-141.48;100.00;69781.59;4981750;29;20037;-79
2022/07/05 09:25:43;;;;;;;4.82;3.17;;;;;;;-141.48;100.00;69781.59;4985466;29;20039;-79
2022/07/05 09:29:16;;;;;;;3.42;3.15;;;;;;;-141.48;100.00;69781.59;4970254;29;20035;-79
2022/07/05 09:32:46;;;;;;;3.13;2.80;;;;;;;-141.48;100.00;69781.59;4983462;29;20027;-79
2022/07/05 09:36:14;;;;;;;3.33;3.05;;;;;;;-141.48;100.00;69781.59;4966385;29;20027;-80
2022/07/05 09:39:48;;;;;;;13.55;5.20;;;;;;;-141.48;100.00;69781.59;4974515;29;20034;-80
2022/07/05 09:43:19;;;;;;;4.45;3.75;;;;;;;-141.48;100.00;69781.59;4973920;29;20027;-80
2022/07/05 09:47:06;;;;;;;3.72;2.50;;;;;;;-141.48;100.00;69781.59;4975125;29;20034;-80
2022/07/05 09:50:36;;;;;;;3.83;3.15;;;;;;;-141.48;100.00;69781.59;4974256;29;20079;-79
2022/07/05 09:53:48;;;;;;;4.13;3.72;;;;;;;-141.48;100.00;69781.59;4980322;29;20087;-79
2022/07/05 09:57:06;;;;;;;3.15;2.90;;;;;;;-141.48;100.00;69781.59;4980361;29;20031;-80
2022/07/05 10:00:35;;;;;;;3.35;3.17;;;;;;;-141.48;100.00;69781.59;4978667;29;20397;-81
2022/07/05 10:03:25;;;;;;;7.55;3.25;;;;;;;-141.48;100.00;69781.59;4979438;29;20064;-79
2022/07/05 10:07:07;;;;;;;2.95;2.72;;;;;;;-141.48;100.00;69781.59;4979292;29;20034;-81
2022/07/05 10:10:13;;;;;;;3.50;3.33;;;;;;;-141.48;100.00;69781.59;4980764;29;20030;-81
2022/07/05 10:12:47;;;;;;;2.60;2.50;;;;;;;-141.48;100.00;69781.59;4982067;29;20080;-79
2022/07/05 10:15:20;;;;;;;2.60;2.40;;;;;;;-141.48;100.00;69781.59;4966819;29;20073;-80
2022/07/05 10:17:59;;;;;;;2.15;2.03;;;;;;;-141.48;100.00;69781.59;4987317;29;20031;-79
2022/07/05 10:20:46;;;;;;;3.80;3.45;;;;;;;-141.48;100.00;69781.59;4989090;29;20035;-81
2022/07/05 10:23:18;;;;;;;5.30;2.67;;;;;;;-141.48;100.00;69781.59;4992709;24;20065;-83
2022/07/05 10:25:49;;;;;;;3.70;2.80;;;;;;;-141.48;100.00;69781.59;4963876;29;20066;-83
2022/07/05 10:28:21;;;;;;;2.45;2.35;;;;;;;-141.48;100.00;69781.59;4965141;29;20030;-83
2022/07/05 10:30:52;;;;;;;3.47;3.00;;;;;;;-141.48;100.00;69781.59;4965392;29;20482;-84
2022/07/05 10:33:26;;;;;;;3.03;2.78;;;;;;;-141.48;100.00;69781.59;4981115;29;20034;-86
2022/07/05 10:35:58;;;;;;;2.75;2.65;;;;;;;-141.48;100.00;69781.59;4964363;29;20046;-90
2022/07/05 10:38:29;;;;;;;3.15;2.83;;;;;;;-141.48;100.00;69781.59;4982284;29;20031;-86
2022/07/05 10:41:03;;;;;;;5.80;3.63;;;;;;;-141.48;100.00;69781.59;4984151;29;20030;-86
2022/07/05 10:43:34;;;;;;;3.58;2.92;;;;;;;-141.48;100.00;69781.59;4993856;29;20039;-88
2022/07/05 10:46:07;;;;;;;3.17;2.78;;;;;;;-141.48;100.00;69781.59;4972947;29;20409;-86
2022/07/05 10:48:38;;;;;;;2.92;2.72;;;;;;;-141.48;100.00;69781.59;4976521;29;20018;-88
2022/07/05 10:51:10;;;;;;;2.83;2.70;;;;;;;-141.48;100.00;69781.59;4995409;29;20019;-87
2022/07/05 10:53:40;;;;;;;2.78;2.55;;;;;;;-141.48;100.00;69781.59;4987620;29;20061;-86
2022/07/05 10:56:12;;;;;;;2.33;2.13;;;;;;;-141.48;100.00;69781.59;4992257;29;20035;-87
2022/07/05 10:58:47;;;;;;;3.72;2.75;;;;;;;-141.48;100.00;69781.59;4992625;29;20041;-86
2022/07/05 11:01:23;;;;;;;2.63;2.35;;;;;;;-141.48;100.00;69781.59;4990437;29;20046;-86
2022/07/05 11:04:05;;;;;;;2.88;2.67;;;;;;;-141.48;100.00;69781.59;4989862;29;20046;-88
2022/07/05 11:06:38;;;;;;;3.53;3.25;;;;;;;-141.48;100.00;69781.59;4993539;29;20038;-87
2022/07/05 11:09:11;;;;;;;5.85;2.40;;;;;;;-141.48;100.00;69781.59;4976856;29;20030;-87
2022/07/05 11:11:43;;;;;;;2.22;2.13;;;;;;;-141.48;100.00;69781.59;4991748;29;20042;-87
2022/07/05 11:14:22;;;;;;;2.90;2.80;;;;;;;-141.48;100.00;69781.59;4987172;29;20031;-85
2022/07/05 11:17:09;;;;;;;8.45;2.75;;;;;;;-141.48;100.00;69781.59;4987321;29;20027;-87
2022/07/05 11:19:57;;;;;;;2.88;2.78;;;;;;;-141.48;100.00;69781.59;4973936;29;20030;-84
2022/07/05 11:22:28;;;;;;;3.30;3.10;;;;;;;-141.48;100.00;69781.59;4969887;29;20084;-85
2022/07/05 11:25:00;;;;;;;4.57;4.22;;;;;;;-141.48;100.00;69781.59;4982144;29;20082;-84
2022/07/05 11:27:33;;;;;;;4.10;3.85;;;;;;;-141.48;100.00;69781.59;4978151;29;20031;-84
2022/07/05 11:30:04;;;;;;;3.50;3.30;;;;;;;-141.48;100.00;69781.59;4961898;29;20039;-84
2022/07/05 11:32:37;;;;;;;6.35;4.35;;;;;;;-141.48;100.00;69781.59;4962014;29;20035;-86
2022/07/05 11:35:16;;;;;;;7.55;3.67;;;;;;;-141.48;100.00;69781.59;4980294;29;20129;-85
2022/07/05 11:38:03;;;;;;;3.22;3.03;;;;;;;-141.48;100.00;69781.59;4996643;29;20041;-84
2022/07/05 11:40:37;;;;;;;2.95;2.85;;;;;;;-141.48;100.00;69781.59;4996439;29;20046;-84
2022/07/05 11:43:09;;;;;;;6.63;4.63;;;;;;;-141.48;100.00;69781.59;4980424;29;20409;-85
2022/07/05 11:45:39;;;;;;;4.28;4.05;;;;;;;-141.48;100.00;69781.59;4996400;29;20033;-85
2022/07/05 11:48:15;;;;;;;3.72;3.50;;;;;;;-141.48;100.00;69781.59;4997454;29;20027;-85
2022/07/05 11:50:45;;;;;;;3.50;3.20;;;;;;;-141.48;100.00;69781.59;4996341;29;20079;-85
2022/07/05 11:53:28;;;;;;;3.25;3.15;;;;;;;-141.48;100.00;69781.59;4995171;29;20414;-85
2022/07/05 11:55:59;;;;;;;5.32;5.03;;;;;;;-141.48;100.00;69781.59;4996231;29;20068;-84
2022/07/05 11:58:33;;;;;;;5.10;4.57;;;;;;;-141.48;100.00;69781.59;4979533;29;20034;-85
2022/07/05 12:01:05;;;;;;;5.10;4.80;;;;;;;-141.48;100.00;69781.59;4979090;29;20033;-85
2022/07/05 12:03:36;;;;;;;4.00;3.80;;;;;;;-141.48;100.00;69781.59;4995458;29;20034;-84
2022/07/05 12:06:13;;;;;;;5.82;4.28;;;;;;;-141.48;100.00;69781.59;4995952;29;20533;-85
2022/07/05 12:08:44;;;;;;;4.25;3.95;;;;;;;-141.48;100.00;69781.59;4995670;29;20034;-83
2022/07/05 12:14:05;;;;;;;4.57;4.18;;;;;;;-141.48;100.00;69781.59;4992670;29;20066;-85
2022/07/05 12:16:36;;;;;;;4.00;3.65;;;;;;;-141.48;100.00;69781.59;4995124;29;20299;-85
2022/07/05 12:19:06;;;;;;;4.32;3.17;;;;;;;-141.48;100.00;69781.59;4995641;29;20034;-83
2022/07/05 12:21:37;;;;;;;4.03;3.63;;;;;;;-141.48;100.00;69781.59;4979415;29;20050;-84
2022/07/05 12:24:07;;;;;;;4.35;4.05;;;;;;;-141.48;100.00;69781.59;4995923;29;20102;-84
2022/07/05 12:26:39;;;;;;;3.85;3.55;;;;;;;-141.48;100.00;69781.59;4994994;29;20087;-85
2022/07/05 12:29:09;;;;;;;4.43;3.50;;;;;;;-141.48;100.00;69781.59;4977381;29;20611;-83
2022/07/05 12:32:08;;;;;;;7.28;2.63;;;;;;;-141.48;100.00;69781.59;4963167;29;20129;-85
2022/07/05 12:34:39;;;;;;;;;;;;;;;-141.48;100.00;69781.59;4977996;29;20406;-83
2022/07/05 12:37:09;;;;;;;4.30;2.78;;;;;;;-141.48;100.00;69781.59;4960398;29;19913;-84
2022/07/05 12:39:40;;;;;;;4.03;2.85;;;;;;;-141.48;100.00;69781.59;4978283;29;20026;-83
2022/07/05 12:42:10;;;;;;;2.22;2.13;;;;;;;-141.48;100.00;69781.59;4961476;29;20475;-84
2022/07/05 12:44:41;;;;;;;2.67;2.47;;;;;;;-141.48;100.00;69781.59;4960575;29;20367;-84
2022/07/05 12:47:11;;;;;;;3.05;2.40;;;;;;;-141.48;100.00;69781.59;4977292;29;20038;-84
2022/07/05 12:49:55;;;;;;;2.65;2.55;;;;;;;-141.48;100.00;69781.59;4977631;29;20034;-84
2022/07/05 12:52:26;;;;;;;3.03;2.78;;;;;;;-141.48;100.00;69781.59;4960441;29;20077;-84
2022/07/05 12:58:04;;;;;;;2.83;2.72;;;;;;;-141.48;100.00;69781.59;4976610;29;20045;-84
2022/07/05 13:00:35;;;;;;;2.13;2.03;;;;;;;-141.48;100.00;69781.59;4960780;29;20034;-83
2022/07/05 13:03:07;;;;;;;2.70;2.60;;;;;;;-141.48;100.00;69781.59;4960619;29;20031;-83
2022/07/05 13:05:38;;;;;;;3.40;3.20;;;;;;;-141.48;100.00;69781.59;4976068;29;20031;-85
2022/07/05 13:08:08;;;;;;;2.65;2.47;;;;;;;-141.48;100.00;69781.59;4975316;29;20088;-83
2022/07/05 13:10:46;;;;;;;3.58;2.47;;;;;;;-141.48;100.00;69781.59;4960180;29;20546;-84
2022/07/05 13:13:20;;;;;;;4.38;2.55;;;;;;;-141.48;100.00;69781.59;4958448;29;20041;-84
2022/07/05 13:15:50;;;;;;;2.90;2.80;;;;;;;-141.48;100.00;69781.59;4959430;29;20027;-84
2022/07/05 13:18:27;;;;;;;6.85;3.08;;;;;;;-141.48;100.00;69781.59;4976445;29;20031;-84
2022/07/05 13:20:57;;;;;;;6.45;3.05;;;;;;;-141.48;100.00;69781.59;4960097;29;20319;-84
2022/07/05 13:23:28;;;;;;;2.63;2.53;;;;;;;-141.48;100.00;69781.59;4960470;29;20064;-84
2022/07/05 13:25:58;;;;;;;2.40;2.30;;;;;;;-141.48;100.00;69781.59;4979779;29;20035;-84
2022/07/05 13:28:29;;;;;;;3.05;2.30;;;;;;;-141.48;100.00;69781.59;4979090;29;20102;-85
2022/07/05 13:30:59;;;;;;;6.43;2.03;;;;;;;-141.48;100.00;69781.59;4962500;29;20271;-84
2022/07/05 13:33:30;;;;;;;4.13;2.80;;;;;;;-141.48;100.00;69781.59;4962432;29;20034;-85
2022/07/05 13:36:00;;;;;;;12.82;2.72;;;;;;;-141.48;100.00;69781.59;4962606;29;20418;-85
2022/07/05 13:38:31;;;;;;;2.22;2.08;;;;;;;-141.48;100.00;69781.59;4978745;29;20042;-84
2022/07/05 13:41:01;;;;;;;2.92;2.72;;;;;;;-141.48;100.00;69781.59;4979778;29;20460;-86
2022/07/05 13:43:32;;;;;;;2.22;2.13;;;;;;;-141.48;100.00;69781.59;4981643;29;20027;-85
2022/07/05 13:46:02;;;;;;;3.15;1.95;;;;;;;-141.48;100.00;69781.59;4963626;29;20113;-84
2022/07/05 13:48:33;;;;;;;2.22;2.13;;;;;;;-141.48;100.00;69781.59;4980465;29;20038;-85
2022/07/05 13:51:04;;;;;;;2.70;1.70;;;;;;;-141.48;100.00;69781.59;4965022;29;20062;-82
2022/07/05 13:53:36;;;;;;;2.35;2.25;;;;;;;-141.48;100.00;69781.59;4982189;29;20031;-82
2022/07/05 13:56:07;;;;;;;2.60;2.50;;;;;;;-141.48;100.00;69781.59;4982940;29;20135;-83
2022/07/05 13:58:38;;;;;;;5.72;2.22;;;;;;;-141.48;100.00;69781.59;4982151;29;20034;-81
2022/07/05 14:01:08;;;;;;;3.80;2.20;;;;;;;-141.48;100.00;69781.59;4965276;29;20456;-87
2022/07/05 14:03:39;;;;;;;1.63;1.63;;;;;;;-141.48;100.00;69781.59;4980035;29;20027;-86
2022/07/05 14:06:09;;;;;;;3.50;2.53;;;;;;;-141.48;100.00;69781.59;4979593;29;20083;-84
2022/07/05 14:08:42;;;;;;;7.18;3.65;;;;;;;-141.48;100.00;69781.59;4962674;29;20048;-83
2022/07/05 14:11:12;;;;;;;3.35;3.05;;;;;;;-141.48;100.00;69781.59;4963010;29;20118;-83
2022/07/05 14:13:43;;;;;;;2.38;2.28;;;;;;;-141.48;100.00;69781.59;4978281;29;20114;-85
2022/07/05 14:16:13;;;;;;;1.63;1.63;;;;;;;-141.48;100.00;69781.59;4963953;29;20038;-84
2022/07/05 14:18:44;;;;;;;2.65;1.75;;;;;;;-141.48;100.00;69781.59;4980287;29;20038;-84
2022/07/05 14:21:17;;;;;;;2.00;1.90;;;;;;;-141.48;100.00;69781.59;4979810;29;20398;-83
2022/07/05 14:23:47;;;;;;;2.22;2.13;;;;;;;-141.48;100.00;69781.59;4981286;29;20063;-83
2022/07/05 14:26:18;;;;;;;2.85;2.65;;;;;;;-141.48;100.00;69781.59;4981293;29;20084;-84
2022/07/05 14:28:48;;;;;;;2.75;2.55;;;;;;;-141.48;100.00;69781.59;4980507;29;20486;-84